Terminal Aerodrome Forecast
Issued by NWS

Home | Current Version | Previous Version | Text Only | Print | Product List | Glossary On
Versions: 1 2 3 4 5 6 7 8 9 10 11 12 13 14 15
000
FTUS42 KMLB 221800 AAA
TAFISM
TAF AMD
KISM 221803Z 2218/2318 20004KT P6SM SCT025 BKN050
     FM222000 10007KT P6SM VCTS SCT045CB SCT080 BKN250
      TEMPO 2220/2222 2SM TSRA BKN025CB
     FM230100 14005KT P6SM FEW020 SCT100 OVC250
     FM230600 19002KT P6SM FEW010 SCT250
     FM231400 20006KT P6SM SCT020=

USA.gov is the U.S. government's official web portal to all federal, state and local government web resources and services.